createdAt,value
2018-02-04T00:02:38.091Z,99551.52
2018-02-04T00:05:40.242Z,99548.57
2018-02-04T00:08:41.602Z,99539.23
2018-02-04T00:11:42.978Z,99555.67
2018-02-04T00:14:45.098Z,99559.59
2018-02-04T00:17:46.512Z,99565.67
2018-02-04T00:20:48.626Z,99570.86
2018-02-04T00:23:50.004Z,99573.98
2018-02-04T00:26:51.394Z,99582.30
2018-02-04T00:29:52.808Z,99594.94
2018-02-04T00:32:54.188Z,99591.92
2018-02-04T00:35:55.586Z,99600.99
2018-02-04T00:38:57.203Z,99601.56
2018-02-04T00:41:59.332Z,99607.64
2018-02-04T00:45:00.712Z,99608.84
2018-02-04T00:48:02.082Z,99611.94
2018-02-04T00:51:03.458Z,99611.44
2018-02-04T00:54:05.539Z,99614.08
2018-02-04T00:57:07.680Z,99618.37
2018-02-04T01:00:09.062Z,99626.80
2018-02-04T01:03:10.445Z,99628.98
2018-02-04T01:06:11.840Z,99626.75
2018-02-04T01:09:13.187Z,99633.69
2018-02-04T01:12:14.601Z,99635.08
2018-02-04T01:15:16.030Z,99631.55
2018-02-04T01:18:18.176Z,99644.20
2018-02-04T01:21:19.520Z,99655.52
2018-02-04T01:24:21.662Z,99661.58
2018-02-04T01:27:23.030Z,99651.17
2018-02-04T01:30:24.403Z,99657.75
2018-02-04T01:33:32.675Z,99663.00
2018-02-04T01:36:34.090Z,99668.28
2018-02-04T01:39:36.246Z,99670.02
2018-02-04T01:42:37.587Z,99672.59
2018-02-04T01:45:39.152Z,99680.47
2018-02-04T01:48:40.529Z,99692.69
2018-02-04T01:51:41.860Z,99698.36
2018-02-04T01:54:43.246Z,99690.52
2018-02-04T01:57:44.609Z,99687.03
2018-02-04T02:00:45.982Z,99693.12
2018-02-04T02:03:48.108Z,99686.61
2018-02-04T02:06:49.546Z,99694.91
2018-02-04T02:09:51.626Z,99699.24
2018-02-04T02:12:53.013Z,99702.31
2018-02-04T02:15:54.391Z,99705.79
2018-02-04T02:18:55.738Z,99704.50
2018-02-04T02:21:57.176Z,99704.93
2018-02-04T02:24:59.271Z,99706.23
2018-02-04T02:28:01.339Z,99705.81
2018-02-04T02:31:02.720Z,99710.16
2018-02-04T02:34:04.483Z,99725.42
2018-02-04T02:37:06.318Z,99705.78
2018-02-04T02:40:08.832Z,99714.94
2018-02-04T02:43:10.677Z,99721.95
2018-02-04T02:46:12.042Z,99725.44
2018-02-04T02:49:13.480Z,99734.14
2018-02-04T02:52:14.913Z,99738.92
2018-02-04T02:55:17.105Z,99744.59
2018-02-04T02:58:18.448Z,99754.64
2018-02-04T03:01:19.848Z,99768.16
2018-02-04T03:04:22.012Z,99765.98
2018-02-04T03:07:23.436Z,99772.87
2018-02-04T03:10:24.805Z,99779.90
2018-02-04T03:13:26.957Z,99777.28
2018-02-04T03:16:28.381Z,99789.50
2018-02-04T03:19:30.531Z,99783.39
2018-02-04T03:22:31.911Z,99785.59
2018-02-04T03:25:33.318Z,99790.40
2018-02-04T03:28:34.677Z,99811.73
2018-02-04T03:31:36.089Z,99801.69
2018-02-04T03:34:38.200Z,99810.89
2018-02-04T03:37:40.359Z,99810.86
2018-02-04T03:40:41.749Z,99817.86
2018-02-04T03:43:43.166Z,99820.89
2018-02-04T03:46:45.286Z,99816.53
2018-02-04T03:49:47.269Z,99830.08
2018-02-04T03:52:49.422Z,99833.13
2018-02-04T03:55:50.817Z,99829.61
2018-02-04T03:58:52.192Z,99835.69
2018-02-04T04:01:53.604Z,99847.91
2018-02-04T04:04:55.714Z,99852.25
2018-02-04T04:07:57.846Z,99857.53
2018-02-04T04:10:59.253Z,99855.78
2018-02-04T04:14:00.696Z,99871.95
2018-02-04T04:17:02.143Z,99873.66
2018-02-04T04:20:03.519Z,99880.24
2018-02-04T04:23:04.870Z,99878.91
2018-02-04T04:26:06.260Z,99870.58
2018-02-04T04:29:07.644Z,99881.81
2018-02-04T04:32:09.011Z,99891.91
2018-02-04T04:35:10.358Z,99888.86
2018-02-04T04:38:11.775Z,99893.22
2018-02-04T04:41:13.124Z,99904.14
2018-02-04T04:44:14.485Z,99904.15
2018-02-04T04:47:16.654Z,99904.55
2018-02-04T04:50:18.046Z,99910.25
2018-02-04T04:53:19.398Z,99922.75
2018-02-04T04:56:21.513Z,99919.72
2018-02-04T04:59:22.893Z,99928.45
2018-02-04T05:02:24.227Z,99918.88
2018-02-04T05:05:25.595Z,99927.55
2018-02-04T05:08:27.663Z,99938.75
2018-02-04T05:11:29.075Z,99939.83
2018-02-04T05:14:30.410Z,99941.61
2018-02-04T05:17:31.766Z,99943.27
2018-02-04T05:20:33.125Z,99958.52
2018-02-04T05:23:34.464Z,99951.61
2018-02-04T05:26:35.844Z,99962.08
2018-02-04T05:29:37.200Z,99957.05
2018-02-04T05:32:38.586Z,99975.59
2018-02-04T05:35:40.002Z,99968.07
2018-02-04T05:38:42.132Z,99985.94
2018-02-04T05:41:43.466Z,99990.38
2018-02-04T05:44:44.828Z,99992.84
2018-02-04T05:47:46.228Z,99998.98
2018-02-04T05:50:47.690Z,100003.58
2018-02-04T05:53:49.080Z,100005.61
2018-02-04T05:56:50.453Z,100006.09
2018-02-04T05:59:51.798Z,100009.63
2018-02-04T06:02:53.180Z,100017.88
2018-02-04T06:05:54.526Z,100010.23
2018-02-04T06:08:55.914Z,100023.45
2018-02-04T06:11:58.003Z,100030.48
2018-02-04T06:14:59.384Z,100031.74
2018-02-04T06:18:00.747Z,100038.11
2018-02-04T06:21:02.136Z,100054.84
2018-02-04T06:24:03.507Z,100054.98
2018-02-04T06:27:04.924Z,100054.02
2018-02-04T06:30:07.012Z,100057.95
2018-02-04T06:33:08.437Z,100062.33
2018-02-04T06:36:09.754Z,100054.80
2018-02-04T06:39:11.115Z,100074.11
2018-02-04T06:42:12.433Z,100077.18
2018-02-04T06:45:13.877Z,100075.41
2018-02-04T06:48:15.215Z,100071.41
2018-02-04T06:51:16.617Z,100072.30
2018-02-04T06:54:18.008Z,100078.50
2018-02-04T06:57:19.397Z,100083.32
2018-02-04T07:00:20.709Z,100078.98
2018-02-04T07:03:22.081Z,100092.14
2018-02-04T07:06:23.510Z,100091.73
2018-02-04T07:09:25.591Z,100096.08
2018-02-04T07:12:27.655Z,100106.59
2018-02-04T07:15:29.017Z,100097.40
2018-02-04T07:18:30.318Z,100093.48
2018-02-04T07:21:31.749Z,100112.59
2018-02-04T07:24:33.105Z,100113.02
2018-02-04T07:27:35.190Z,100114.78
2018-02-04T07:30:36.541Z,100113.03
2018-02-04T07:33:37.912Z,100120.43
2018-02-04T07:36:39.294Z,100127.97
2018-02-04T07:39:40.614Z,100122.27
2018-02-04T07:42:41.976Z,100131.39
2018-02-04T07:45:43.350Z,100140.12
2018-02-04T07:48:44.670Z,100140.58
2018-02-04T07:51:46.739Z,100135.73
2018-02-04T07:54:48.087Z,100143.08
2018-02-04T07:57:49.452Z,100153.02
2018-02-04T08:00:50.818Z,100152.20
2018-02-04T08:03:53.116Z,100159.13
2018-02-04T08:06:55.186Z,100168.61
2018-02-04T08:09:56.636Z,100182.31
2018-02-04T08:12:57.958Z,100191.55
2018-02-04T08:15:59.317Z,100202.52
2018-02-04T08:19:00.690Z,100202.64
2018-02-04T08:22:02.050Z,100207.52
2018-02-04T08:25:03.389Z,100211.83
2018-02-04T08:28:04.731Z,100211.77
2018-02-04T08:31:06.003Z,100223.66
2018-02-04T08:34:07.334Z,100221.02
2018-02-04T08:37:09.440Z,100232.42
2018-02-04T08:40:11.540Z,100219.69
2018-02-04T08:43:13.601Z,100228.09
2018-02-04T08:46:14.926Z,100235.45
2018-02-04T08:49:16.230Z,100239.45
2018-02-04T08:52:17.582Z,100247.79
2018-02-04T08:55:19.663Z,100254.30
2018-02-04T08:58:21.764Z,100257.79
2018-02-04T09:01:23.921Z,100271.03
2018-02-04T09:04:25.254Z,100272.48
2018-02-04T09:07:26.575Z,100278.79
2018-02-04T09:10:27.886Z,100284.84
2018-02-04T09:13:29.405Z,100290.45
2018-02-04T09:16:30.738Z,100294.02
2018-02-04T09:19:32.062Z,100295.63
2018-02-04T09:22:34.161Z,100291.32
2018-02-04T09:25:35.537Z,100290.86
2018-02-04T09:28:37.726Z,100302.64
2018-02-04T09:31:40.120Z,100314.00
2018-02-04T09:34:43.107Z,100307.41
2018-02-04T09:37:44.689Z,100320.11
2018-02-04T09:40:46.492Z,100316.47
2018-02-04T09:43:47.854Z,100319.98
2018-02-04T09:46:49.416Z,100326.27
2018-02-04T09:49:52.181Z,100326.58
2018-02-04T09:52:55.347Z,100326.17
2018-02-04T09:55:57.591Z,100338.36
2018-02-04T09:58:59.177Z,100342.23
2018-02-04T10:02:00.575Z,100339.54
2018-02-04T10:05:01.899Z,100347.46
2018-02-04T10:08:03.916Z,100332.61
2018-02-04T10:11:05.283Z,100351.28
2018-02-04T10:14:06.885Z,100354.09
2018-02-04T10:17:08.322Z,100350.28
2018-02-04T10:20:09.752Z,100357.02
2018-02-04T10:23:12.628Z,100361.41
2018-02-04T10:26:13.978Z,100361.88
2018-02-04T10:29:15.233Z,100365.84
2018-02-04T10:32:16.658Z,100370.52
2018-02-04T10:35:18.348Z,100372.08
2018-02-04T10:38:19.682Z,100373.33
2018-02-04T10:41:21.018Z,100377.06
2018-02-04T10:44:22.352Z,100384.41
2018-02-04T10:47:23.655Z,100390.58
2018-02-04T10:50:25.378Z,100387.20
2018-02-04T10:53:26.712Z,100393.02
2018-02-04T10:56:28.039Z,100398.22
2018-02-04T10:59:30.229Z,100414.09
2018-02-04T11:02:31.558Z,100404.95
2018-02-04T11:05:32.958Z,100408.84
2018-02-04T11:08:34.702Z,100408.97
2018-02-04T11:11:36.123Z,100426.95
2018-02-04T11:14:37.568Z,100415.58
2018-02-04T11:17:40.797Z,100424.15
2018-02-04T11:20:42.144Z,100430.59
2018-02-04T11:23:43.640Z,100432.48
2018-02-04T11:26:45.761Z,100437.33
2018-02-04T11:29:47.172Z,100434.89
2018-02-04T11:32:48.645Z,100445.82
2018-02-04T11:35:51.465Z,100446.55
2018-02-04T11:38:52.843Z,100448.11
2018-02-04T11:41:54.257Z,100454.98
2018-02-04T11:44:55.702Z,100455.91
2018-02-04T11:47:57.023Z,100460.83
2018-02-04T11:50:58.380Z,100473.20
2018-02-04T11:53:59.785Z,100449.99
2018-02-04T11:57:01.138Z,100468.38
2018-02-04T12:00:02.603Z,100470.67
2018-02-04T12:03:03.942Z,100467.23
2018-02-04T12:06:05.309Z,100475.09
2018-02-04T12:09:06.649Z,100470.44
2018-02-04T12:12:08.042Z,100487.04
2018-02-04T12:15:09.428Z,100486.22
2018-02-04T12:18:10.803Z,100491.77
2018-02-04T12:21:12.166Z,100473.70
2018-02-04T12:24:13.531Z,100499.67
2018-02-04T12:27:15.592Z,100504.81
2018-02-04T12:30:16.953Z,100507.11
2018-02-04T12:33:18.290Z,100498.71
2018-02-04T12:36:20.395Z,100505.55
2018-02-04T12:39:21.710Z,100508.07
2018-02-04T12:42:23.039Z,100511.19
2018-02-04T12:45:25.094Z,100504.54
2018-02-04T12:48:26.450Z,100528.58
2018-02-04T12:51:27.819Z,100520.98
2018-02-04T12:54:29.291Z,100531.28
2018-02-04T12:57:30.597Z,100527.44
2018-02-04T13:00:31.928Z,100538.48
2018-02-04T13:03:33.990Z,100531.98
2018-02-04T13:06:35.369Z,100539.28
2018-02-04T13:09:36.752Z,100526.13
2018-02-04T13:12:38.087Z,100529.28
2018-02-04T13:15:40.247Z,100536.17
2018-02-04T13:18:41.773Z,100540.53
2018-02-04T13:21:43.139Z,100540.84
2018-02-04T13:24:45.289Z,100541.11
2018-02-04T13:27:46.654Z,100526.94
2018-02-04T13:30:48.011Z,100537.58
2018-02-04T13:33:50.437Z,100537.70
2018-02-04T13:36:51.926Z,100538.97
2018-02-04T13:39:53.582Z,100529.61
2018-02-04T13:42:55.635Z,100549.84
2018-02-04T13:45:56.990Z,100546.96
2018-02-04T13:48:58.530Z,100548.14
2018-02-04T13:52:00.081Z,100548.40
2018-02-04T13:55:01.418Z,100541.77
2018-02-04T13:58:03.577Z,100564.27
2018-02-04T14:01:04.909Z,100566.59
2018-02-04T14:04:06.253Z,100569.95
2018-02-04T14:07:07.638Z,100562.45
2018-02-04T14:10:08.934Z,100568.17
2018-02-04T14:13:10.994Z,100575.52
2018-02-04T14:16:12.743Z,100574.72
2018-02-04T14:19:14.210Z,100577.34
2018-02-04T14:22:15.718Z,100577.12
2018-02-04T14:25:17.127Z,100585.09
2018-02-04T14:28:18.432Z,100590.22
2018-02-04T14:31:20.194Z,100593.27
2018-02-04T14:34:21.789Z,100584.53
2018-02-04T14:37:23.333Z,100596.45
2018-02-04T14:40:24.862Z,100609.72
2018-02-04T14:43:26.588Z,100602.35
2018-02-04T14:46:28.272Z,100612.53
2018-02-04T14:49:29.678Z,100614.64
2018-02-04T14:52:31.076Z,100629.22
2018-02-04T14:55:32.456Z,100626.30
2018-02-04T14:58:33.766Z,100619.10
2018-02-04T15:01:35.039Z,100638.48
2018-02-04T15:04:37.334Z,100631.09
2018-02-04T15:07:38.834Z,100634.17
2018-02-04T15:10:40.413Z,100635.58
2018-02-04T15:13:41.747Z,100635.77
2018-02-04T15:16:43.467Z,100642.04
2018-02-04T15:19:45.097Z,100657.09
2018-02-04T15:22:47.261Z,100663.09
2018-02-04T15:25:48.876Z,100653.47
2018-02-04T15:28:50.282Z,100658.29
2018-02-04T15:31:51.734Z,100669.72
2018-02-04T15:34:53.500Z,100673.99
2018-02-04T15:37:55.231Z,100679.38
2018-02-04T15:40:57.641Z,100677.37
2018-02-04T15:43:59.078Z,100675.46
2018-02-04T15:47:00.465Z,100674.95
2018-02-04T15:50:01.897Z,100680.75
2018-02-04T15:53:03.526Z,100693.33
2018-02-04T15:56:04.998Z,100690.11
2018-02-04T15:59:06.423Z,100688.60
2018-02-04T16:02:08.027Z,100693.40
2018-02-04T16:05:09.427Z,100692.23
2018-02-04T16:08:10.752Z,100704.91
2018-02-04T16:11:12.320Z,100699.09
2018-02-04T16:14:13.731Z,100706.00
2018-02-04T16:17:15.095Z,100714.69
2018-02-04T16:20:16.506Z,100712.61
2018-02-04T16:23:18.633Z,100713.62
2018-02-04T16:26:20.012Z,100711.70
2018-02-04T16:29:22.086Z,100717.20
2018-02-04T16:32:23.490Z,100714.35
2018-02-04T16:35:25.539Z,100717.55
2018-02-04T16:38:26.865Z,100713.31
2018-02-04T16:41:28.915Z,100715.30
2018-02-04T16:44:31.069Z,100721.33
2018-02-04T16:47:32.370Z,100718.95
2018-02-04T16:50:33.667Z,100716.67
2018-02-04T16:53:34.993Z,100723.06
2018-02-04T16:56:37.167Z,100727.17
2018-02-04T16:59:39.343Z,100730.62
2018-02-04T17:02:40.707Z,100730.77
2018-02-04T17:05:41.993Z,100735.48
2018-02-04T17:08:43.254Z,100734.81
2018-02-04T17:11:44.657Z,100733.56
2018-02-04T17:14:45.998Z,100738.69
2018-02-04T17:17:48.087Z,100741.34
2018-02-04T17:20:50.174Z,100739.19
2018-02-04T17:23:51.490Z,100750.01
2018-02-04T17:26:52.834Z,100741.36
2018-02-04T17:29:54.149Z,100752.39
2018-02-04T17:32:55.518Z,100755.56
2018-02-04T17:35:57.585Z,100761.77
2018-02-04T17:38:58.914Z,100765.63
2018-02-04T17:42:00.210Z,100761.84
2018-02-04T17:45:01.545Z,100775.28
2018-02-04T17:48:03.560Z,100761.11
2018-02-04T17:51:04.877Z,100766.50
2018-02-04T17:54:11.083Z,100766.09
2018-02-04T17:57:12.387Z,100767.08
2018-02-04T18:00:13.666Z,100768.69
2018-02-04T18:03:15.154Z,100773.53
2018-02-04T18:06:16.489Z,100784.75
2018-02-04T18:09:18.601Z,100782.57
2018-02-04T18:12:19.889Z,100781.41
2018-02-04T18:15:21.203Z,100791.53
2018-02-04T18:18:23.237Z,100796.41
2018-02-04T18:21:24.537Z,100796.75
2018-02-04T18:24:26.261Z,100801.20
2018-02-04T18:27:27.574Z,100808.05
2018-02-04T18:30:28.947Z,100802.41
2018-02-04T18:33:30.312Z,100807.64
2018-02-04T18:36:32.399Z,100811.14
2018-02-04T18:39:33.752Z,100818.55
2018-02-04T18:42:35.019Z,100818.73
2018-02-04T18:45:36.558Z,100819.09
2018-02-04T18:48:38.196Z,100828.88
2018-02-04T18:51:39.839Z,100829.63
2018-02-04T18:54:41.674Z,100843.37
2018-02-04T18:57:43.061Z,100842.01
2018-02-04T19:00:44.347Z,100841.67
2018-02-04T19:03:47.842Z,100853.30
2018-02-04T19:06:49.297Z,100849.73
2018-02-04T19:09:51.457Z,100855.50
2018-02-04T19:12:54.001Z,100848.42
2018-02-04T19:15:56.810Z,100859.63
2018-02-04T19:18:58.458Z,100862.91
2018-02-04T19:22:01.443Z,100870.77
2018-02-04T19:25:02.889Z,100875.44
2018-02-04T19:28:05.251Z,100870.38
2018-02-04T19:31:09.034Z,100887.35
2018-02-04T19:34:11.642Z,100892.20
2018-02-04T19:37:13.133Z,100891.57
2018-02-04T19:40:14.595Z,100899.47
2018-02-04T19:43:16.793Z,100900.59
2018-02-04T19:46:18.349Z,100898.39
2018-02-04T19:49:19.741Z,100899.66
2018-02-04T19:52:21.535Z,100898.42
2018-02-04T19:55:23.176Z,100914.34
2018-02-04T19:58:24.881Z,100907.29
2018-02-04T20:01:26.759Z,100909.70
2018-02-04T20:04:28.599Z,100906.73
2018-02-04T20:07:30.034Z,100906.55
2018-02-04T20:10:32.252Z,100905.45
2018-02-04T20:13:33.595Z,100908.01
2018-02-04T20:16:35.200Z,100912.54
2018-02-04T20:19:37.250Z,100912.77
2018-02-04T20:22:38.900Z,100915.02
2018-02-04T20:25:40.725Z,100919.34
2018-02-04T20:28:43.049Z,100923.97
2018-02-04T20:31:44.660Z,100925.81
2018-02-04T20:34:51.200Z,100929.58
2018-02-04T20:37:52.822Z,100930.95
2018-02-04T20:40:55.010Z,100930.84
2018-02-04T20:43:56.682Z,100941.04
2018-02-04T20:46:58.479Z,100934.55
2018-02-04T20:49:59.849Z,100940.34
2018-02-04T20:53:01.237Z,100945.34
2018-02-04T20:56:02.675Z,100951.05
2018-02-04T20:59:04.731Z,100955.45
2018-02-04T21:02:06.030Z,100956.66
2018-02-04T21:05:07.501Z,100960.95
2018-02-04T21:08:08.804Z,100968.58
2018-02-04T21:11:10.578Z,100966.67
2018-02-04T21:14:13.560Z,100971.20
2018-02-04T21:17:15.114Z,100973.27
2018-02-04T21:20:17.383Z,100969.14
2018-02-04T21:23:18.993Z,100971.77
2018-02-04T21:26:21.120Z,100971.16
2018-02-04T21:29:22.572Z,100973.53
2018-02-04T21:32:23.900Z,100963.45
2018-02-04T21:35:25.246Z,100972.14
2018-02-04T21:38:27.343Z,100972.20
2018-02-04T21:41:29.602Z,100971.80
2018-02-04T21:44:30.942Z,100969.89
2018-02-04T21:47:32.276Z,100977.22
2018-02-04T21:50:33.596Z,100973.48
2018-02-04T21:53:36.190Z,100978.20
2018-02-04T21:56:37.533Z,100976.72
2018-02-04T21:59:38.970Z,100977.67
2018-02-04T22:02:40.459Z,100987.05
2018-02-04T22:05:41.873Z,100994.16
2018-02-04T22:08:43.634Z,100995.69
2018-02-04T22:11:45.017Z,100999.20
2018-02-04T22:14:46.422Z,101001.22
2018-02-04T22:17:47.912Z,100999.66
2018-02-04T22:20:50.478Z,101001.52
2018-02-04T22:23:51.866Z,101000.78
2018-02-04T22:26:53.296Z,101005.45
2018-02-04T22:29:54.715Z,100996.41
2018-02-04T22:32:56.915Z,100995.98
2018-02-04T22:35:59.032Z,101003.28
2018-02-04T22:39:00.380Z,101013.88
2018-02-04T22:42:01.704Z,101020.93
2018-02-04T22:45:03.115Z,101016.37
2018-02-04T22:48:04.419Z,101012.94
2018-02-04T22:51:05.684Z,101021.95
2018-02-04T22:54:07.726Z,101017.70
2018-02-04T22:57:09.087Z,101028.41
2018-02-04T23:00:11.146Z,101028.16
2018-02-04T23:03:12.422Z,101026.11
2018-02-04T23:06:13.732Z,101036.53
2018-02-04T23:09:14.987Z,101033.39
2018-02-04T23:12:16.430Z,101038.08
2018-02-04T23:15:17.752Z,101029.25
2018-02-04T23:18:19.088Z,101028.84
2018-02-04T23:21:20.647Z,101033.00
2018-02-04T23:24:22.015Z,101033.72
2018-02-04T23:27:23.416Z,101032.16
2018-02-04T23:30:25.534Z,101028.36
2018-02-04T23:33:26.891Z,101032.67
2018-02-04T23:36:28.269Z,101031.47
2018-02-04T23:39:29.609Z,101034.03
2018-02-04T23:42:30.987Z,101036.40
2018-02-04T23:45:32.389Z,101034.55
2018-02-04T23:48:33.875Z,101035.14
2018-02-04T23:51:35.385Z,101033.07
2018-02-04T23:54:37.502Z,101026.69
2018-02-04T23:57:38.955Z,101037.43
